sensor_id;sensor_type;location;lat;lon;timestamp;P1;durP1;ratioP1;P2;durP2;ratioP2
76604;SDS011;73179;50.978;16.998;2024-03-23T00:54:31;22.83;;;14.13;;
76604;SDS011;73179;50.978;16.998;2024-03-23T00:56:57;20.95;;;12.57;;
76604;SDS011;73179;50.978;16.998;2024-03-23T00:59:23;22.38;;;11.55;;
76604;SDS011;73179;50.978;16.998;2024-03-23T01:01:53;19.90;;;11.38;;
76604;SDS011;73179;50.978;16.998;2024-03-23T01:04:18;21.15;;;12.02;;
76604;SDS011;73179;50.978;16.998;2024-03-23T01:06:45;22.38;;;13.10;;
76604;SDS011;73179;50.978;16.998;2024-03-23T01:09:11;21.63;;;12.82;;
76604;SDS011;73179;50.978;16.998;2024-03-23T01:11:39;20.23;;;12.13;;
76604;SDS011;73179;50.978;16.998;2024-03-23T01:14:05;22.58;;;13.10;;
76604;SDS011;73179;50.978;16.998;2024-03-23T01:16:32;22.90;;;13.30;;
76604;SDS011;73179;50.978;16.998;2024-03-23T01:18:58;20.98;;;12.90;;
76604;SDS011;73179;50.978;16.998;2024-03-23T01:21:24;24.70;;;14.15;;
76604;SDS011;73179;50.978;16.998;2024-03-23T01:23:50;18.48;;;12.65;;
76604;SDS011;73179;50.978;16.998;2024-03-23T01:26:16;18.88;;;13.05;;
76604;SDS011;73179;50.978;16.998;2024-03-23T01:28:42;20.73;;;13.23;;
76604;SDS011;73179;50.978;16.998;2024-03-23T01:31:08;20.58;;;13.60;;
76604;SDS011;73179;50.978;16.998;2024-03-23T01:33:34;23.15;;;13.13;;
76604;SDS011;73179;50.978;16.998;2024-03-23T01:36:00;20.95;;;12.85;;
76604;SDS011;73179;50.978;16.998;2024-03-23T01:38:26;22.92;;;12.93;;
76604;SDS011;73179;50.978;16.998;2024-03-23T01:40:58;23.50;;;14.98;;
76604;SDS011;73179;50.978;16.998;2024-03-23T01:43:24;25.48;;;14.60;;
76604;SDS011;73179;50.978;16.998;2024-03-23T01:45:50;22.10;;;15.50;;
76604;SDS011;73179;50.978;16.998;2024-03-23T01:48:19;23.70;;;13.93;;
76604;SDS011;73179;50.978;16.998;2024-03-23T01:50:46;23.98;;;15.63;;
76604;SDS011;73179;50.978;16.998;2024-03-23T01:53:14;26.95;;;15.95;;
76604;SDS011;73179;50.978;16.998;2024-03-23T01:55:43;24.65;;;15.32;;
76604;SDS011;73179;50.978;16.998;2024-03-23T01:58:09;27.45;;;16.10;;
76604;SDS011;73179;50.978;16.998;2024-03-23T02:00:36;24.45;;;16.20;;
76604;SDS011;73179;50.978;16.998;2024-03-23T02:03:02;25.95;;;15.68;;
76604;SDS011;73179;50.978;16.998;2024-03-23T02:05:47;25.38;;;15.15;;
76604;SDS011;73179;50.978;16.998;2024-03-23T02:08:13;27.52;;;15.88;;
76604;SDS011;73179;50.978;16.998;2024-03-23T02:10:40;26.90;;;14.50;;
76604;SDS011;73179;50.978;16.998;2024-03-23T02:13:05;24.35;;;13.93;;
76604;SDS011;73179;50.978;16.998;2024-03-23T02:15:32;24.98;;;14.98;;
76604;SDS011;73179;50.978;16.998;2024-03-23T02:17:59;24.15;;;13.88;;
76604;SDS011;73179;50.978;16.998;2024-03-23T02:20:25;23.80;;;14.10;;
76604;SDS011;73179;50.978;16.998;2024-03-23T02:22:52;26.35;;;15.35;;
76604;SDS011;73179;50.978;16.998;2024-03-23T02:25:19;24.42;;;13.73;;
76604;SDS011;73179;50.978;16.998;2024-03-23T02:27:45;22.10;;;12.23;;
76604;SDS011;73179;50.978;16.998;2024-03-23T02:30:11;22.02;;;13.43;;
76604;SDS011;73179;50.978;16.998;2024-03-23T02:32:37;21.88;;;14.38;;
76604;SDS011;73179;50.978;16.998;2024-03-23T02:35:03;25.52;;;14.68;;
76604;SDS011;73179;50.978;16.998;2024-03-23T02:37:30;25.50;;;13.88;;
76604;SDS011;73179;50.978;16.998;2024-03-23T02:39:56;25.88;;;13.70;;
76604;SDS011;73179;50.978;16.998;2024-03-23T02:42:22;23.73;;;14.98;;
76604;SDS011;73179;50.978;16.998;2024-03-23T02:44:48;22.77;;;13.93;;
76604;SDS011;73179;50.978;16.998;2024-03-23T02:47:14;22.40;;;14.02;;
76604;SDS011;73179;50.978;16.998;2024-03-23T02:49:41;19.40;;;11.77;;
76604;SDS011;73179;50.978;16.998;2024-03-23T02:52:07;24.17;;;12.88;;
76604;SDS011;73179;50.978;16.998;2024-03-23T02:54:33;23.23;;;14.05;;
76604;SDS011;73179;50.978;16.998;2024-03-23T02:56:59;18.52;;;12.73;;
76604;SDS011;73179;50.978;16.998;2024-03-23T02:59:26;19.75;;;12.20;;
76604;SDS011;73179;50.978;16.998;2024-03-23T03:01:51;20.17;;;12.73;;
76604;SDS011;73179;50.978;16.998;2024-03-23T03:04:18;22.15;;;13.15;;
76604;SDS011;73179;50.978;16.998;2024-03-23T03:06:46;21.10;;;12.52;;
76604;SDS011;73179;50.978;16.998;2024-03-23T03:09:13;20.02;;;11.48;;
76604;SDS011;73179;50.978;16.998;2024-03-23T03:11:39;19.10;;;12.25;;
76604;SDS011;73179;50.978;16.998;2024-03-23T03:14:05;20.80;;;12.80;;
76604;SDS011;73179;50.978;16.998;2024-03-23T03:16:33;22.80;;;13.13;;
76604;SDS011;73179;50.978;16.998;2024-03-23T03:18:59;19.20;;;12.27;;
76604;SDS011;73179;50.978;16.998;2024-03-23T03:21:25;19.52;;;13.43;;
76604;SDS011;73179;50.978;16.998;2024-03-23T03:23:52;21.75;;;13.50;;
76604;SDS011;73179;50.978;16.998;2024-03-23T03:26:19;20.42;;;12.20;;
76604;SDS011;73179;50.978;16.998;2024-03-23T03:28:45;21.05;;;12.90;;
76604;SDS011;73179;50.978;16.998;2024-03-23T03:31:17;21.98;;;13.68;;
76604;SDS011;73179;50.978;16.998;2024-03-23T03:33:44;20.20;;;13.88;;
76604;SDS011;73179;50.978;16.998;2024-03-23T03:36:10;24.30;;;12.95;;
76604;SDS011;73179;50.978;16.998;2024-03-23T03:38:36;21.98;;;13.52;;
76604;SDS011;73179;50.978;16.998;2024-03-23T03:41:03;22.80;;;12.45;;
76604;SDS011;73179;50.978;16.998;2024-03-23T03:43:30;24.27;;;14.18;;
76604;SDS011;73179;50.978;16.998;2024-03-23T03:45:56;19.60;;;12.07;;
76604;SDS011;73179;50.978;16.998;2024-03-23T03:48:23;22.17;;;11.68;;
76604;SDS011;73179;50.978;16.998;2024-03-23T03:50:49;18.80;;;12.30;;
76604;SDS011;73179;50.978;16.998;2024-03-23T03:53:16;20.30;;;11.68;;
76604;SDS011;73179;50.978;16.998;2024-03-23T03:55:42;20.00;;;12.13;;
76604;SDS011;73179;50.978;16.998;2024-03-23T03:58:08;21.98;;;12.82;;
76604;SDS011;73179;50.978;16.998;2024-03-23T04:00:34;24.17;;;13.55;;
76604;SDS011;73179;50.978;16.998;2024-03-23T04:03:01;22.55;;;13.23;;
76604;SDS011;73179;50.978;16.998;2024-03-23T04:05:28;19.83;;;11.48;;
76604;SDS011;73179;50.978;16.998;2024-03-23T04:07:54;27.23;;;15.30;;
76604;SDS011;73179;50.978;16.998;2024-03-23T04:10:20;21.55;;;13.05;;
76604;SDS011;73179;50.978;16.998;2024-03-23T04:12:47;22.67;;;14.82;;
76604;SDS011;73179;50.978;16.998;2024-03-23T04:15:13;19.33;;;13.48;;
76604;SDS011;73179;50.978;16.998;2024-03-23T04:17:40;21.52;;;13.13;;
76604;SDS011;73179;50.978;16.998;2024-03-23T04:20:08;19.98;;;12.10;;
76604;SDS011;73179;50.978;16.998;2024-03-23T04:22:39;21.92;;;13.18;;
76604;SDS011;73179;50.978;16.998;2024-03-23T04:25:06;21.10;;;13.63;;
76604;SDS011;73179;50.978;16.998;2024-03-23T04:27:33;17.88;;;10.93;;
76604;SDS011;73179;50.978;16.998;2024-03-23T04:29:59;18.52;;;11.75;;
76604;SDS011;73179;50.978;16.998;2024-03-23T04:32:30;20.38;;;12.65;;
76604;SDS011;73179;50.978;16.998;2024-03-23T04:34:56;20.92;;;12.38;;
76604;SDS011;73179;50.978;16.998;2024-03-23T04:37:22;19.25;;;11.95;;
76604;SDS011;73179;50.978;16.998;2024-03-23T04:39:49;20.48;;;13.32;;
76604;SDS011;73179;50.978;16.998;2024-03-23T04:42:15;19.95;;;13.57;;
76604;SDS011;73179;50.978;16.998;2024-03-23T04:44:41;20.58;;;13.27;;
76604;SDS011;73179;50.978;16.998;2024-03-23T04:47:08;21.92;;;12.98;;
76604;SDS011;73179;50.978;16.998;2024-03-23T04:49:33;20.08;;;12.75;;
76604;SDS011;73179;50.978;16.998;2024-03-23T04:52:03;19.20;;;12.55;;
76604;SDS011;73179;50.978;16.998;2024-03-23T04:54:30;17.80;;;11.35;;
76604;SDS011;73179;50.978;16.998;2024-03-23T04:56:58;21.02;;;13.20;;
76604;SDS011;73179;50.978;16.998;2024-03-23T04:59:24;21.58;;;12.95;;
76604;SDS011;73179;50.978;16.998;2024-03-23T05:01:50;17.52;;;11.65;;
76604;SDS011;73179;50.978;16.998;2024-03-23T05:04:16;20.70;;;13.18;;
76604;SDS011;73179;50.978;16.998;2024-03-23T05:06:42;22.13;;;13.10;;
76604;SDS011;73179;50.978;16.998;2024-03-23T05:09:08;20.30;;;12.75;;
76604;SDS011;73179;50.978;16.998;2024-03-23T05:11:38;19.60;;;12.90;;
76604;SDS011;73179;50.978;16.998;2024-03-23T05:14:04;21.10;;;13.00;;
76604;SDS011;73179;50.978;16.998;2024-03-23T05:16:30;20.98;;;12.00;;
76604;SDS011;73179;50.978;16.998;2024-03-23T05:18:56;18.92;;;11.82;;
76604;SDS011;73179;50.978;16.998;2024-03-23T05:21:22;23.15;;;13.23;;
76604;SDS011;73179;50.978;16.998;2024-03-23T05:23:48;19.35;;;13.18;;
76604;SDS011;73179;50.978;16.998;2024-03-23T05:26:15;22.63;;;13.45;;
76604;SDS011;73179;50.978;16.998;2024-03-23T05:28:40;21.80;;;14.93;;
76604;SDS011;73179;50.978;16.998;2024-03-23T05:31:07;23.10;;;13.80;;
76604;SDS011;73179;50.978;16.998;2024-03-23T05:33:35;25.08;;;14.30;;
76604;SDS011;73179;50.978;16.998;2024-03-23T05:36:06;20.50;;;13.15;;
76604;SDS011;73179;50.978;16.998;2024-03-23T05:38:36;23.75;;;13.00;;
76604;SDS011;73179;50.978;16.998;2024-03-23T05:41:02;21.88;;;13.05;;
76604;SDS011;73179;50.978;16.998;2024-03-23T05:43:28;17.38;;;12.05;;
76604;SDS011;73179;50.978;16.998;2024-03-23T05:45:55;22.25;;;13.85;;
76604;SDS011;73179;50.978;16.998;2024-03-23T05:48:22;23.25;;;13.93;;
76604;SDS011;73179;50.978;16.998;2024-03-23T05:50:49;20.40;;;12.68;;
76604;SDS011;73179;50.978;16.998;2024-03-23T05:53:16;24.50;;;13.57;;
76604;SDS011;73179;50.978;16.998;2024-03-23T05:55:42;19.83;;;13.15;;
76604;SDS011;73179;50.978;16.998;2024-03-23T05:58:09;20.13;;;13.48;;
76604;SDS011;73179;50.978;16.998;2024-03-23T06:00:36;23.58;;;13.18;;
76604;SDS011;73179;50.978;16.998;2024-03-23T06:03:01;20.75;;;13.98;;
76604;SDS011;73179;50.978;16.998;2024-03-23T06:05:28;20.70;;;12.88;;
76604;SDS011;73179;50.978;16.998;2024-03-23T06:07:53;17.83;;;11.75;;
76604;SDS011;73179;50.978;16.998;2024-03-23T06:10:20;18.73;;;12.07;;
76604;SDS011;73179;50.978;16.998;2024-03-23T06:12:46;18.08;;;11.45;;
76604;SDS011;73179;50.978;16.998;2024-03-23T06:15:12;21.58;;;14.60;;
76604;SDS011;73179;50.978;16.998;2024-03-23T06:17:38;22.30;;;12.77;;
76604;SDS011;73179;50.978;16.998;2024-03-23T06:20:05;22.63;;;11.98;;
76604;SDS011;73179;50.978;16.998;2024-03-23T06:22:33;24.02;;;12.82;;
76604;SDS011;73179;50.978;16.998;2024-03-23T06:25:00;19.25;;;12.05;;
76604;SDS011;73179;50.978;16.998;2024-03-23T06:27:26;19.90;;;12.05;;
76604;SDS011;73179;50.978;16.998;2024-03-23T06:29:52;20.02;;;13.45;;
76604;SDS011;73179;50.978;16.998;2024-03-23T06:32:18;18.17;;;10.80;;
76604;SDS011;73179;50.978;16.998;2024-03-23T06:34:44;20.70;;;13.57;;
76604;SDS011;73179;50.978;16.998;2024-03-23T06:37:10;19.23;;;12.02;;
76604;SDS011;73179;50.978;16.998;2024-03-23T06:39:37;19.50;;;12.55;;
76604;SDS011;73179;50.978;16.998;2024-03-23T06:42:03;21.70;;;14.27;;
76604;SDS011;73179;50.978;16.998;2024-03-23T06:44:30;21.45;;;14.82;;
76604;SDS011;73179;50.978;16.998;2024-03-23T06:46:57;31.80;;;15.00;;
76604;SDS011;73179;50.978;16.998;2024-03-23T06:49:24;23.08;;;12.18;;
76604;SDS011;73179;50.978;16.998;2024-03-23T06:51:51;21.58;;;13.00;;
76604;SDS011;73179;50.978;16.998;2024-03-23T06:54:17;21.23;;;14.75;;
76604;SDS011;73179;50.978;16.998;2024-03-23T06:56:44;18.90;;;12.50;;
76604;SDS011;73179;50.978;16.998;2024-03-23T06:59:10;20.60;;;13.48;;
76604;SDS011;73179;50.978;16.998;2024-03-23T07:01:36;20.25;;;13.73;;
76604;SDS011;73179;50.978;16.998;2024-03-23T07:04:03;20.30;;;13.27;;
76604;SDS011;73179;50.978;16.998;2024-03-23T07:06:30;20.20;;;12.50;;
76604;SDS011;73179;50.978;16.998;2024-03-23T07:08:57;18.80;;;12.45;;
76604;SDS011;73179;50.978;16.998;2024-03-23T07:11:23;21.05;;;13.00;;
76604;SDS011;73179;50.978;16.998;2024-03-23T07:13:50;16.90;;;13.27;;
76604;SDS011;73179;50.978;16.998;2024-03-23T07:16:17;17.75;;;12.10;;
76604;SDS011;73179;50.978;16.998;2024-03-23T07:18:43;19.50;;;12.82;;
76604;SDS011;73179;50.978;16.998;2024-03-23T07:21:09;19.17;;;12.23;;
76604;SDS011;73179;50.978;16.998;2024-03-23T07:23:36;17.88;;;13.02;;
76604;SDS011;73179;50.978;16.998;2024-03-23T07:26:02;20.35;;;12.85;;
76604;SDS011;73179;50.978;16.998;2024-03-23T07:28:33;18.52;;;12.25;;
76604;SDS011;73179;50.978;16.998;2024-03-23T07:31:07;19.52;;;12.93;;
76604;SDS011;73179;50.978;16.998;2024-03-23T07:33:35;17.48;;;11.43;;
76604;SDS011;73179;50.978;16.998;2024-03-23T07:36:09;15.82;;;11.85;;
76604;SDS011;73179;50.978;16.998;2024-03-23T07:38:35;14.45;;;11.45;;
76604;SDS011;73179;50.978;16.998;2024-03-23T07:41:05;13.90;;;9.65;;
76604;SDS011;73179;50.978;16.998;2024-03-23T07:43:32;15.27;;;10.55;;
76604;SDS011;73179;50.978;16.998;2024-03-23T07:45:58;16.05;;;10.38;;
76604;SDS011;73179;50.978;16.998;2024-03-23T07:48:25;17.42;;;11.45;;
76604;SDS011;73179;50.978;16.998;2024-03-23T07:51:01;15.50;;;10.98;;
76604;SDS011;73179;50.978;16.998;2024-03-23T07:53:31;16.00;;;11.73;;
76604;SDS011;73179;50.978;16.998;2024-03-23T07:56:05;13.13;;;9.95;;
76604;SDS011;73179;50.978;16.998;2024-03-23T07:58:32;14.65;;;11.48;;
76604;SDS011;73179;50.978;16.998;2024-03-23T08:01:06;13.88;;;11.50;;
76604;SDS011;73179;50.978;16.998;2024-03-23T08:03:39;15.02;;;11.35;;
76604;SDS011;73179;50.978;16.998;2024-03-23T08:06:12;14.30;;;10.38;;
76604;SDS011;73179;50.978;16.998;2024-03-23T08:08:40;18.55;;;11.65;;
76604;SDS011;73179;50.978;16.998;2024-03-23T08:11:07;19.58;;;12.35;;
76604;SDS011;73179;50.978;16.998;2024-03-23T08:13:34;15.15;;;11.20;;
76604;SDS011;73179;50.978;16.998;2024-03-23T08:16:01;15.45;;;10.77;;
76604;SDS011;73179;50.978;16.998;2024-03-23T08:18:29;16.33;;;10.52;;
76604;SDS011;73179;50.978;16.998;2024-03-23T08:20:55;15.32;;;12.00;;
76604;SDS011;73179;50.978;16.998;2024-03-23T08:23:29;14.57;;;11.77;;
76604;SDS011;73179;50.978;16.998;2024-03-23T08:25:57;18.40;;;11.95;;
76604;SDS011;73179;50.978;16.998;2024-03-23T08:28:25;15.57;;;10.75;;
76604;SDS011;73179;50.978;16.998;2024-03-23T08:30:54;13.25;;;10.73;;
76604;SDS011;73179;50.978;16.998;2024-03-23T08:33:21;17.17;;;11.60;;
76604;SDS011;73179;50.978;16.998;2024-03-23T08:35:57;16.85;;;10.07;;
76604;SDS011;73179;50.978;16.998;2024-03-23T08:38:31;14.55;;;10.10;;
76604;SDS011;73179;50.978;16.998;2024-03-23T08:41:00;15.13;;;11.05;;
76604;SDS011;73179;50.978;16.998;2024-03-23T08:43:31;13.95;;;10.45;;
76604;SDS011;73179;50.978;16.998;2024-03-23T08:46:14;13.63;;;10.73;;
76604;SDS011;73179;50.978;16.998;2024-03-23T08:51:10;13.90;;;9.77;;
76604;SDS011;73179;50.978;16.998;2024-03-23T08:53:38;16.02;;;10.93;;
76604;SDS011;73179;50.978;16.998;2024-03-23T08:56:04;14.13;;;10.90;;
76604;SDS011;73179;50.978;16.998;2024-03-23T08:58:32;13.07;;;9.48;;
76604;SDS011;73179;50.978;16.998;2024-03-23T09:01:05;11.57;;;10.23;;
76604;SDS011;73179;50.978;16.998;2024-03-23T09:03:33;11.95;;;9.20;;
76604;SDS011;73179;50.978;16.998;2024-03-23T09:06:01;14.07;;;9.45;;
76604;SDS011;73179;50.978;16.998;2024-03-23T09:08:28;12.70;;;9.75;;
76604;SDS011;73179;50.978;16.998;2024-03-23T09:10:54;14.18;;;10.63;;
76604;SDS011;73179;50.978;16.998;2024-03-23T09:13:20;14.38;;;9.73;;
76604;SDS011;73179;50.978;16.998;2024-03-23T09:15:49;13.80;;;10.18;;
76604;SDS011;73179;50.978;16.998;2024-03-23T09:18:16;12.88;;;10.27;;
76604;SDS011;73179;50.978;16.998;2024-03-23T09:20:43;13.93;;;10.32;;
76604;SDS011;73179;50.978;16.998;2024-03-23T09:23:10;12.98;;;10.35;;
76604;SDS011;73179;50.978;16.998;2024-03-23T09:25:37;12.60;;;10.40;;
76604;SDS011;73179;50.978;16.998;2024-03-23T09:28:05;15.93;;;10.05;;
76604;SDS011;73179;50.978;16.998;2024-03-23T09:30:34;17.38;;;11.23;;
76604;SDS011;73179;50.978;16.998;2024-03-23T09:33:02;13.32;;;10.90;;
76604;SDS011;73179;50.978;16.998;2024-03-23T09:35:28;12.80;;;10.40;;
76604;SDS011;73179;50.978;16.998;2024-03-23T09:37:54;14.52;;;10.27;;
76604;SDS011;73179;50.978;16.998;2024-03-23T09:40:20;14.05;;;11.05;;
76604;SDS011;73179;50.978;16.998;2024-03-23T09:42:50;14.55;;;11.20;;
76604;SDS011;73179;50.978;16.998;2024-03-23T09:45:21;13.50;;;10.32;;
76604;SDS011;73179;50.978;16.998;2024-03-23T09:47:48;11.68;;;9.18;;
76604;SDS011;73179;50.978;16.998;2024-03-23T09:50:16;11.93;;;9.98;;
76604;SDS011;73179;50.978;16.998;2024-03-23T09:52:42;15.82;;;11.45;;
76604;SDS011;73179;50.978;16.998;2024-03-23T09:55:08;11.95;;;10.10;;
76604;SDS011;73179;50.978;16.998;2024-03-23T09:57:35;14.70;;;9.45;;
76604;SDS011;73179;50.978;16.998;2024-03-23T10:00:02;12.55;;;9.55;;
76604;SDS011;73179;50.978;16.998;2024-03-23T10:02:29;12.32;;;10.35;;
76604;SDS011;73179;50.978;16.998;2024-03-23T10:04:55;12.98;;;10.82;;
76604;SDS011;73179;50.978;16.998;2024-03-23T10:07:25;13.82;;;11.25;;
76604;SDS011;73179;50.978;16.998;2024-03-23T10:09:51;13.15;;;11.63;;
76604;SDS011;73179;50.978;16.998;2024-03-23T10:12:18;14.02;;;10.82;;
76604;SDS011;73179;50.978;16.998;2024-03-23T10:14:45;10.77;;;9.23;;
76604;SDS011;73179;50.978;16.998;2024-03-23T10:17:22;9.65;;;8.23;;
76604;SDS011;73179;50.978;16.998;2024-03-23T10:19:52;10.50;;;8.55;;
76604;SDS011;73179;50.978;16.998;2024-03-23T10:22:24;9.25;;;8.00;;
76604;SDS011;73179;50.978;16.998;2024-03-23T10:24:50;10.52;;;8.82;;
76604;SDS011;73179;50.978;16.998;2024-03-23T10:27:18;11.07;;;7.78;;
76604;SDS011;73179;50.978;16.998;2024-03-23T10:29:46;10.02;;;8.25;;
76604;SDS011;73179;50.978;16.998;2024-03-23T10:32:16;9.88;;;8.15;;
76604;SDS011;73179;50.978;16.998;2024-03-23T10:34:43;10.15;;;8.68;;
76604;SDS011;73179;50.978;16.998;2024-03-23T10:37:10;10.70;;;8.57;;
76604;SDS011;73179;50.978;16.998;2024-03-23T10:39:40;10.25;;;7.57;;
76604;SDS011;73179;50.978;16.998;2024-03-23T10:42:09;11.18;;;7.22;;
76604;SDS011;73179;50.978;16.998;2024-03-23T10:44:36;8.75;;;7.75;;
76604;SDS011;73179;50.978;16.998;2024-03-23T10:47:04;10.10;;;7.97;;
76604;SDS011;73179;50.978;16.998;2024-03-23T10:49:35;11.57;;;8.55;;
76604;SDS011;73179;50.978;16.998;2024-03-23T10:52:05;10.85;;;7.22;;
76604;SDS011;73179;50.978;16.998;2024-03-23T10:54:33;9.88;;;7.63;;
76604;SDS011;73179;50.978;16.998;2024-03-23T10:59:38;11.45;;;7.53;;
76604;SDS011;73179;50.978;16.998;2024-03-23T11:02:06;9.13;;;7.50;;
76604;SDS011;73179;50.978;16.998;2024-03-23T11:04:38;9.32;;;6.80;;
76604;SDS011;73179;50.978;16.998;2024-03-23T11:09:54;8.27;;;6.93;;
76604;SDS011;73179;50.978;16.998;2024-03-23T11:17:31;10.10;;;6.80;;
76604;SDS011;73179;50.978;16.998;2024-03-23T11:20:02;9.07;;;6.57;;
76604;SDS011;73179;50.978;16.998;2024-03-23T11:22:45;7.35;;;6.60;;
76604;SDS011;73179;50.978;16.998;2024-03-23T11:25:16;7.90;;;6.53;;
76604;SDS011;73179;50.978;16.998;2024-03-23T11:27:44;7.35;;;5.68;;
76604;SDS011;73179;50.978;16.998;2024-03-23T11:32:50;7.00;;;6.25;;
76604;SDS011;73179;50.978;16.998;2024-03-23T11:35:28;8.90;;;5.97;;
76604;SDS011;73179;50.978;16.998;2024-03-23T11:38:12;6.05;;;4.85;;
76604;SDS011;73179;50.978;16.998;2024-03-23T11:40:43;6.70;;;6.10;;
76604;SDS011;73179;50.978;16.998;2024-03-23T11:48:14;6.55;;;5.85;;
76604;SDS011;73179;50.978;16.998;2024-03-23T11:50:45;6.40;;;5.55;;
76604;SDS011;73179;50.978;16.998;2024-03-23T11:53:16;7.53;;;5.60;;
76604;SDS011;73179;50.978;16.998;2024-03-23T11:58:20;7.20;;;6.05;;
76604;SDS011;73179;50.978;16.998;2024-03-23T12:03:26;7.93;;;5.88;;
76604;SDS011;73179;50.978;16.998;2024-03-23T12:05:55;8.05;;;6.78;;
76604;SDS011;73179;50.978;16.998;2024-03-23T12:08:24;9.13;;;7.38;;
76604;SDS011;73179;50.978;16.998;2024-03-23T12:13:41;8.90;;;7.45;;
76604;SDS011;73179;50.978;16.998;2024-03-23T12:16:13;7.63;;;6.03;;
76604;SDS011;73179;50.978;16.998;2024-03-23T12:18:44;9.32;;;6.85;;
76604;SDS011;73179;50.978;16.998;2024-03-23T12:21:10;9.15;;;6.97;;
76604;SDS011;73179;50.978;16.998;2024-03-23T12:23:40;10.80;;;6.93;;
76604;SDS011;73179;50.978;16.998;2024-03-23T12:26:08;9.73;;;7.97;;
76604;SDS011;73179;50.978;16.998;2024-03-23T12:28:34;9.52;;;6.57;;
76604;SDS011;73179;50.978;16.998;2024-03-23T12:31:00;6.30;;;4.90;;
76604;SDS011;73179;50.978;16.998;2024-03-23T12:33:27;5.55;;;4.28;;
76604;SDS011;73179;50.978;16.998;2024-03-23T12:35:52;6.28;;;4.55;;
76604;SDS011;73179;50.978;16.998;2024-03-23T12:38:19;6.82;;;4.47;;
76604;SDS011;73179;50.978;16.998;2024-03-23T12:40:49;8.50;;;5.10;;
76604;SDS011;73179;50.978;16.998;2024-03-23T12:43:16;5.88;;;4.65;;
76604;SDS011;73179;50.978;16.998;2024-03-23T12:45:48;8.77;;;4.68;;
76604;SDS011;73179;50.978;16.998;2024-03-23T12:48:16;5.93;;;4.35;;
76604;SDS011;73179;50.978;16.998;2024-03-23T12:50:42;6.18;;;4.57;;
76604;SDS011;73179;50.978;16.998;2024-03-23T12:53:08;5.93;;;4.68;;
76604;SDS011;73179;50.978;16.998;2024-03-23T12:55:34;6.40;;;5.18;;
76604;SDS011;73179;50.978;16.998;2024-03-23T12:58:01;5.45;;;4.82;;
76604;SDS011;73179;50.978;16.998;2024-03-23T13:00:27;6.75;;;4.90;;
76604;SDS011;73179;50.978;16.998;2024-03-23T13:02:53;6.80;;;5.45;;
76604;SDS011;73179;50.978;16.998;2024-03-23T13:05:19;5.60;;;4.65;;
76604;SDS011;73179;50.978;16.998;2024-03-23T13:07:45;7.65;;;5.05;;
76604;SDS011;73179;50.978;16.998;2024-03-23T13:10:11;7.18;;;6.07;;
76604;SDS011;73179;50.978;16.998;2024-03-23T13:12:37;7.10;;;5.03;;
76604;SDS011;73179;50.978;16.998;2024-03-23T13:15:03;8.43;;;4.85;;
76604;SDS011;73179;50.978;16.998;2024-03-23T13:17:30;7.85;;;5.20;;
76604;SDS011;73179;50.978;16.998;2024-03-23T13:19:57;9.70;;;5.45;;
76604;SDS011;73179;50.978;16.998;2024-03-23T13:22:24;12.30;;;5.45;;
76604;SDS011;73179;50.978;16.998;2024-03-23T13:24:49;7.25;;;5.72;;
76604;SDS011;73179;50.978;16.998;2024-03-23T13:27:16;7.65;;;6.05;;
76604;SDS011;73179;50.978;16.998;2024-03-23T13:29:42;8.48;;;6.13;;
76604;SDS011;73179;50.978;16.998;2024-03-23T13:32:08;8.25;;;6.03;;
76604;SDS011;73179;50.978;16.998;2024-03-23T13:34:35;8.45;;;5.85;;
76604;SDS011;73179;50.978;16.998;2024-03-23T13:37:01;6.90;;;5.53;;
76604;SDS011;73179;50.978;16.998;2024-03-23T13:39:28;6.72;;;4.50;;
76604;SDS011;73179;50.978;16.998;2024-03-23T13:41:56;6.70;;;5.10;;
76604;SDS011;73179;50.978;16.998;2024-03-23T13:44:22;6.90;;;4.95;;
76604;SDS011;73179;50.978;16.998;2024-03-23T13:46:48;5.50;;;4.15;;
76604;SDS011;73179;50.978;16.998;2024-03-23T13:49:30;4.68;;;3.90;;
76604;SDS011;73179;50.978;16.998;2024-03-23T13:51:58;5.82;;;3.50;;
76604;SDS011;73179;50.978;16.998;2024-03-23T13:54:24;5.22;;;3.42;;
76604;SDS011;73179;50.978;16.998;2024-03-23T13:56:52;5.47;;;3.40;;
76604;SDS011;73179;50.978;16.998;2024-03-23T13:59:18;4.60;;;3.65;;
76604;SDS011;73179;50.978;16.998;2024-03-23T14:01:45;4.72;;;3.50;;
76604;SDS011;73179;50.978;16.998;2024-03-23T14:04:11;5.75;;;3.85;;
76604;SDS011;73179;50.978;16.998;2024-03-23T14:06:38;5.30;;;3.22;;
76604;SDS011;73179;50.978;16.998;2024-03-23T14:09:05;5.10;;;3.55;;
76604;SDS011;73179;50.978;16.998;2024-03-23T14:11:37;4.97;;;3.92;;
76604;SDS011;73179;50.978;16.998;2024-03-23T14:14:03;3.55;;;2.90;;
76604;SDS011;73179;50.978;16.998;2024-03-23T14:16:30;5.32;;;3.15;;
76604;SDS011;73179;50.978;16.998;2024-03-23T14:18:56;3.08;;;2.10;;
76604;SDS011;73179;50.978;16.998;2024-03-23T14:21:23;3.03;;;1.80;;
76604;SDS011;73179;50.978;16.998;2024-03-23T14:23:49;2.28;;;1.80;;
76604;SDS011;73179;50.978;16.998;2024-03-23T14:26:15;2.22;;;1.80;;
76604;SDS011;73179;50.978;16.998;2024-03-23T14:28:41;2.20;;;1.80;;
76604;SDS011;73179;50.978;16.998;2024-03-23T14:31:07;2.22;;;1.80;;
76604;SDS011;73179;50.978;16.998;2024-03-23T14:33:39;3.55;;;2.03;;
76604;SDS011;73179;50.978;16.998;2024-03-23T14:36:16;2.10;;;1.73;;
76604;SDS011;73179;50.978;16.998;2024-03-23T14:38:46;3.20;;;2.60;;
76604;SDS011;73179;50.978;16.998;2024-03-23T14:41:13;2.63;;;1.80;;
76604;SDS011;73179;50.978;16.998;2024-03-23T14:43:39;2.40;;;1.75;;
76604;SDS011;73179;50.978;16.998;2024-03-23T14:46:06;2.30;;;1.92;;
76604;SDS011;73179;50.978;16.998;2024-03-23T14:48:36;4.00;;;3.28;;
76604;SDS011;73179;50.978;16.998;2024-03-23T14:51:03;4.90;;;4.13;;
76604;SDS011;73179;50.978;16.998;2024-03-23T14:53:30;5.85;;;4.90;;
76604;SDS011;73179;50.978;16.998;2024-03-23T14:56:00;5.93;;;4.65;;
76604;SDS011;73179;50.978;16.998;2024-03-23T14:58:28;7.75;;;4.85;;
76604;SDS011;73179;50.978;16.998;2024-03-23T15:01:04;4.65;;;3.70;;
76604;SDS011;73179;50.978;16.998;2024-03-23T15:03:35;5.00;;;4.00;;
76604;SDS011;73179;50.978;16.998;2024-03-23T15:06:02;3.55;;;2.97;;
76604;SDS011;73179;50.978;16.998;2024-03-23T15:08:28;5.70;;;2.88;;
76604;SDS011;73179;50.978;16.998;2024-03-23T15:10:58;4.03;;;3.22;;
76604;SDS011;73179;50.978;16.998;2024-03-23T15:13:24;4.30;;;2.92;;
76604;SDS011;73179;50.978;16.998;2024-03-23T15:15:51;3.40;;;2.90;;
76604;SDS011;73179;50.978;16.998;2024-03-23T15:18:17;3.63;;;3.00;;
76604;SDS011;73179;50.978;16.998;2024-03-23T15:20:54;5.53;;;2.60;;
76604;SDS011;73179;50.978;16.998;2024-03-23T15:23:21;3.25;;;2.65;;
76604;SDS011;73179;50.978;16.998;2024-03-23T15:26:22;5.75;;;2.72;;
76604;SDS011;73179;50.978;16.998;2024-03-23T15:28:43;3.47;;;2.45;;
76604;SDS011;73179;50.978;16.998;2024-03-23T15:31:23;2.90;;;2.50;;
76604;SDS011;73179;50.978;16.998;2024-03-23T15:33:50;4.35;;;2.45;;
76604;SDS011;73179;50.978;16.998;2024-03-23T15:36:17;3.38;;;2.63;;
76604;SDS011;73179;50.978;16.998;2024-03-23T15:38:43;2.85;;;2.33;;
76604;SDS011;73179;50.978;16.998;2024-03-23T15:41:10;3.78;;;2.80;;
76604;SDS011;73179;50.978;16.998;2024-03-23T15:43:36;4.25;;;2.88;;